createdAt,value
2023-01-29T00:01:47.784Z,-0.50
2023-01-29T00:06:49.731Z,-0.70
2023-01-29T00:11:51.378Z,-0.70
2023-01-29T00:16:54.891Z,-0.70
2023-01-29T00:21:56.658Z,-0.60
2023-01-29T00:26:58.368Z,-0.70
2023-01-29T00:32:01.616Z,-0.70
2023-01-29T00:37:03.551Z,-0.70
2023-01-29T00:42:06.006Z,-0.70
2023-01-29T00:47:09.627Z,-0.70
2023-01-29T00:52:11.472Z,-0.70
2023-01-29T00:57:13.383Z,-0.70
2023-01-29T01:02:17.340Z,-0.70
2023-01-29T01:07:19.250Z,-0.70
2023-01-29T01:12:21.364Z,-0.70
2023-01-29T01:17:25.078Z,-0.70
2023-01-29T01:22:39.762Z,-0.80
2023-01-29T01:27:41.765Z,-0.80
2023-01-29T01:32:44.979Z,-0.80
2023-01-29T01:37:46.743Z,-0.90
2023-01-29T01:42:49.761Z,-0.90
2023-01-29T01:47:57.365Z,-0.90
2023-01-29T01:53:02.709Z,-1.00
2023-01-29T01:58:09.215Z,-1.00
2023-01-29T02:03:13.293Z,-1.10
2023-01-29T02:08:18.131Z,-1.20
2023-01-29T02:13:20.019Z,-1.20
2023-01-29T02:18:23.362Z,-1.30
2023-01-29T02:23:52.493Z,-1.40
2023-01-29T02:29:02.192Z,-1.30
2023-01-29T02:34:15.164Z,-1.40
2023-01-29T02:39:23.159Z,-1.50
2023-01-29T02:44:34.918Z,-1.70
2023-01-29T02:49:43.601Z,-1.80
2023-01-29T02:54:51.691Z,-1.90
2023-01-29T03:00:21.047Z,-1.90
2023-01-29T03:05:30.472Z,-1.90
2023-01-29T03:10:37.840Z,-1.90
2023-01-29T03:15:45.734Z,-1.80
2023-01-29T03:20:52.426Z,-1.70
2023-01-29T03:25:59.401Z,-1.60
2023-01-29T03:31:04.966Z,-1.60
2023-01-29T03:36:10.819Z,-1.40
2023-01-29T03:41:20.048Z,-1.50
2023-01-29T03:46:30.115Z,-1.50
2023-01-29T03:51:38.258Z,-1.50
2023-01-29T03:56:54.145Z,-1.50
2023-01-29T04:02:00.861Z,-1.50
2023-01-29T04:07:08.940Z,-1.60
2023-01-29T04:12:14.984Z,-1.60
2023-01-29T04:17:25.880Z,-1.70
2023-01-29T04:22:33.012Z,-1.80
2023-01-29T04:27:44.374Z,-1.90
2023-01-29T04:33:01.070Z,-2.10
2023-01-29T04:38:17.327Z,-2.20
2023-01-29T04:43:36.721Z,-2.30
2023-01-29T04:49:28.979Z,-2.50
2023-01-29T06:27:53.941Z,-2.80
2023-01-29T06:33:10.168Z,-2.80
2023-01-29T06:38:13.054Z,-2.70
2023-01-29T06:43:19.563Z,-2.60
2023-01-29T06:48:23.999Z,-2.50
2023-01-29T06:53:26.213Z,-2.50
2023-01-29T06:58:32.880Z,-2.40
2023-01-29T07:03:36.265Z,-2.40
2023-01-29T07:08:38.726Z,-2.20
2023-01-29T07:13:42.747Z,-2.30
2023-01-29T07:18:44.831Z,-2.50
2023-01-29T07:23:46.833Z,-2.50
2023-01-29T07:28:50.234Z,-2.50
2023-01-29T07:33:52.385Z,-2.50
2023-01-29T07:38:54.372Z,-2.40
2023-01-29T07:44:00.155Z,-2.30
2023-01-29T07:49:02.022Z,-2.30
2023-01-29T07:54:04.088Z,-2.20
2023-01-29T07:59:07.688Z,-2.00
2023-01-29T08:04:10.103Z,-1.90
2023-01-29T08:09:12.565Z,-1.60
2023-01-29T08:14:16.003Z,-1.50
2023-01-29T08:19:18.115Z,-1.50
2023-01-29T08:24:20.501Z,-1.40
2023-01-29T08:29:24.636Z,-1.30
2023-01-29T08:34:33.283Z,-1.20
2023-01-29T08:39:35.808Z,-1.00
2023-01-29T08:44:45.388Z,-0.70
2023-01-29T08:50:00.858Z,-0.30
2023-01-29T08:55:10.940Z,-0.30
2023-01-29T09:05:55.392Z,0.00
2023-01-29T09:10:58.972Z,0.00
2023-01-29T09:16:02.010Z,-0.10
2023-01-29T09:21:10.295Z,-0.20
2023-01-29T09:26:12.159Z,-0.20
2023-01-29T09:31:14.054Z,-0.40
2023-01-29T09:36:17.211Z,-0.40
2023-01-29T09:41:33.733Z,-0.30
2023-01-29T09:46:40.303Z,-0.40
2023-01-29T09:51:49.170Z,-0.50
2023-01-29T09:56:54.825Z,-0.60
2023-01-29T10:02:05.804Z,-0.60
2023-01-29T10:07:33.906Z,-0.40
2023-01-29T10:12:58.881Z,-0.50
2023-01-29T10:18:15.967Z,-0.50
2023-01-29T10:23:24.005Z,-0.40
2023-01-29T10:28:29.399Z,-0.10
2023-01-29T10:33:49.284Z,0.00
2023-01-29T10:39:02.706Z,0.10
2023-01-29T10:44:27.194Z,0.10
2023-01-29T10:49:50.246Z,0.10
2023-01-29T10:55:03.305Z,0.30
2023-01-29T11:00:10.933Z,0.40
2023-01-29T11:05:23.206Z,0.70
2023-01-29T11:10:26.591Z,0.90
2023-01-29T11:15:32.188Z,1.20
2023-01-29T11:20:34.694Z,1.30
2023-01-29T11:25:37.883Z,1.40
2023-01-29T11:30:41.046Z,1.60
2023-01-29T11:35:42.779Z,2.10
2023-01-29T11:40:46.318Z,2.10
2023-01-29T11:45:50.266Z,1.90
2023-01-29T11:50:53.691Z,1.60
2023-01-29T11:55:59.591Z,1.40
2023-01-29T12:01:01.936Z,1.40
2023-01-29T12:06:08.364Z,1.60
2023-01-29T12:11:27.033Z,1.90
2023-01-29T12:16:33.104Z,2.00
2023-01-29T12:21:43.090Z,1.80
2023-01-29T12:26:51.659Z,1.70
2023-01-29T12:32:01.342Z,1.80
2023-01-29T12:37:09.814Z,1.60
2023-01-29T12:42:18.643Z,1.60
2023-01-29T12:47:24.839Z,1.60
2023-01-29T12:52:37.445Z,1.70
2023-01-29T12:57:46.954Z,1.60
2023-01-29T13:02:54.391Z,1.80
2023-01-29T13:08:02.990Z,1.80
2023-01-29T13:13:14.899Z,2.10
2023-01-29T13:18:37.485Z,1.90
2023-01-29T13:23:43.561Z,1.60
2023-01-29T13:28:47.982Z,1.50
2023-01-29T13:33:55.272Z,1.50
2023-01-29T13:39:02.436Z,1.20
2023-01-29T13:44:18.261Z,1.20
2023-01-29T13:49:39.503Z,1.30
2023-01-29T13:54:50.095Z,1.70
2023-01-29T13:59:55.436Z,1.90
2023-01-29T14:05:46.755Z,2.00
2023-01-29T14:11:27.239Z,1.90
2023-01-29T14:16:35.908Z,1.90
2023-01-29T14:21:38.467Z,1.90
2023-01-29T14:26:44.744Z,1.90
2023-01-29T14:31:51.889Z,1.90
2023-01-29T14:36:56.262Z,1.80
2023-01-29T14:41:59.438Z,1.70
2023-01-29T14:47:02.626Z,1.70
2023-01-29T14:52:04.426Z,1.60
2023-01-29T14:57:10.784Z,1.60
2023-01-29T15:02:18.591Z,1.50
2023-01-29T15:07:29.475Z,1.30
2023-01-29T15:12:36.230Z,1.20
2023-01-29T15:17:45.993Z,1.20
2023-01-29T15:22:47.645Z,1.10
2023-01-29T15:27:49.953Z,1.00
2023-01-29T15:32:53.060Z,0.90
2023-01-29T15:38:03.480Z,0.80
2023-01-29T15:43:20.033Z,0.70
2023-01-29T15:48:31.396Z,0.60
2023-01-29T15:53:37.952Z,0.40
2023-01-29T15:58:40.172Z,0.20
2023-01-29T16:03:44.041Z,0.00
2023-01-29T16:08:50.522Z,0.00
2023-01-29T16:13:52.755Z,0.00
2023-01-29T16:19:00.911Z,-0.20
2023-01-29T16:24:07.029Z,-0.30
2023-01-29T16:29:10.729Z,-0.50
2023-01-29T16:34:27.613Z,-0.70
2023-01-29T16:39:32.363Z,-0.70
2023-01-29T16:44:36.040Z,-0.70
2023-01-29T16:49:49.508Z,-1.00
2023-01-29T16:54:51.592Z,-1.30
2023-01-29T16:59:55.203Z,-1.40
2023-01-29T17:05:01.959Z,-1.70
2023-01-29T17:10:06.295Z,-1.90
2023-01-29T17:15:43.826Z,-2.10
2023-01-29T17:20:47.289Z,-2.30
2023-01-29T17:25:49.615Z,-2.50
2023-01-29T17:31:05.237Z,-2.70
2023-01-29T17:36:12.284Z,-2.80
2023-01-29T17:41:21.375Z,-2.80
2023-01-29T17:46:23.135Z,-2.80
2023-01-29T17:51:26.751Z,-2.50
2023-01-29T17:56:28.842Z,-2.30
2023-01-29T18:01:30.771Z,-2.30
2023-01-29T18:06:34.121Z,-2.40
2023-01-29T18:11:36.055Z,-2.50
2023-01-29T18:16:38.407Z,-2.60
2023-01-29T18:21:56.418Z,-2.90
2023-01-29T18:27:30.706Z,-3.00
2023-01-29T18:32:32.972Z,-3.10
2023-01-29T18:37:45.448Z,-3.10
2023-01-29T18:43:07.659Z,-3.00
2023-01-29T18:48:15.873Z,-2.80
2023-01-29T19:09:17.337Z,-2.00
2023-01-29T19:14:19.286Z,-2.00
2023-01-29T19:19:21.146Z,-2.00
2023-01-29T19:24:33.030Z,-2.00
2023-01-29T19:29:34.824Z,-2.00
2023-01-29T19:34:36.625Z,-1.80
2023-01-29T19:39:43.851Z,-1.80
2023-01-29T19:44:45.578Z,-1.70
2023-01-29T19:49:47.324Z,-1.70
2023-01-29T19:54:50.514Z,-1.60
2023-01-29T19:59:52.355Z,-1.70
2023-01-29T20:04:54.209Z,-1.80
2023-01-29T20:09:57.330Z,-1.70
2023-01-29T20:14:59.048Z,-1.70
2023-01-29T20:20:00.790Z,-1.70
2023-01-29T20:25:06.558Z,-1.70
2023-01-29T20:30:09.757Z,-1.60
2023-01-29T20:35:11.647Z,-1.60
2023-01-29T20:40:16.711Z,-1.60
2023-01-29T20:45:19.476Z,-1.50
2023-01-29T20:50:21.253Z,-1.30
2023-01-29T20:55:24.495Z,-1.10
2023-01-29T21:00:26.762Z,-1.00
2023-01-29T21:05:28.792Z,-0.90
2023-01-29T21:10:31.884Z,-0.70
2023-01-29T21:15:36.947Z,-0.70
2023-01-29T21:20:38.948Z,-0.70
2023-01-29T21:25:42.493Z,-0.60
2023-01-29T21:30:44.436Z,-0.70
2023-01-29T21:35:46.956Z,-0.60
2023-01-29T21:40:52.453Z,-0.50
2023-01-29T21:45:59.505Z,-0.50
2023-01-29T21:51:01.465Z,-0.40
2023-01-29T21:56:07.976Z,-0.40
2023-01-29T22:07:04.165Z,-0.30
2023-01-29T22:12:08.053Z,-0.30
2023-01-29T22:17:09.786Z,-0.30
2023-01-29T22:22:13.085Z,-0.30
2023-01-29T22:27:18.926Z,-0.30
2023-01-29T22:32:25.111Z,-0.30
2023-01-29T22:37:33.025Z,-0.30
2023-01-29T22:42:45.142Z,-0.20
2023-01-29T22:47:46.954Z,-0.30
2023-01-29T22:53:25.030Z,-0.30
2023-01-29T22:58:28.429Z,-0.30
2023-01-29T23:04:03.203Z,-0.20
2023-01-29T23:09:16.520Z,-0.20
2023-01-29T23:14:19.992Z,-0.20
2023-01-29T23:19:21.987Z,-0.10
2023-01-29T23:24:23.875Z,-0.10
2023-01-29T23:29:27.448Z,-0.10
2023-01-29T23:34:29.301Z,0.00
2023-01-29T23:39:31.053Z,0.00
2023-01-29T23:44:34.188Z,0.00
2023-01-29T23:49:35.957Z,0.00
2023-01-29T23:54:37.717Z,0.10
2023-01-29T23:59:41.083Z,0.10
